createdAt,value
2022-10-11T00:03:21.978Z,17.75
2022-10-11T00:08:23.783Z,17.48
2022-10-11T00:13:25.891Z,18.83
2022-10-11T00:18:27.664Z,22.65
2022-10-11T00:23:29.448Z,26.90
2022-10-11T00:28:32.073Z,19.85
2022-10-11T00:33:34.502Z,22.23
2022-10-11T00:38:36.809Z,17.58
2022-10-11T00:43:39.231Z,19.75
2022-10-11T00:48:44.370Z,15.95
2022-10-11T00:53:47.728Z,13.15
2022-10-11T01:03:51.258Z,18.95
2022-10-11T01:08:53.043Z,15.70
2022-10-11T01:14:13.375Z,16.52
2022-10-11T01:19:18.144Z,22.25
2022-10-11T01:24:25.816Z,15.25
2022-10-11T01:29:36.825Z,14.20
2022-10-11T01:34:41.303Z,23.17
2022-10-11T01:39:46.873Z,18.33
2022-10-11T01:44:50.526Z,18.02
2022-10-11T01:49:59.581Z,15.82
2022-10-11T01:55:09.970Z,18.90
2022-10-11T02:00:16.413Z,21.52
2022-10-11T02:05:35.424Z,16.67
2022-10-11T02:10:44.592Z,19.75
2022-10-11T02:15:47.535Z,16.17
2022-10-11T02:20:50.233Z,10.88
2022-10-11T02:25:52.445Z,15.77
2022-10-11T02:30:55.033Z,24.35
2022-10-11T02:36:03.193Z,15.53
2022-10-11T02:41:15.706Z,13.73
2022-10-11T02:46:17.940Z,14.80
2022-10-11T02:51:19.724Z,21.08
2022-10-11T02:56:21.538Z,12.63
2022-10-11T03:01:23.416Z,15.18
2022-10-11T03:06:25.251Z,14.52
2022-10-11T03:11:27.041Z,19.50
2022-10-11T03:16:28.818Z,12.32
2022-10-11T03:21:30.684Z,17.67
2022-10-11T03:26:32.478Z,14.93
2022-10-11T03:31:34.269Z,9.82
2022-10-11T03:36:36.106Z,18.80
2022-10-11T03:41:37.909Z,16.25
2022-10-11T03:46:39.704Z,15.57
2022-10-11T03:51:41.513Z,15.43
2022-10-11T03:56:43.300Z,15.00
2022-10-11T04:01:45.125Z,16.17
2022-10-11T04:06:46.996Z,25.50
2022-10-11T04:11:51.746Z,12.52
2022-10-11T04:16:56.370Z,14.10
2022-10-11T04:22:00.175Z,17.73
2022-10-11T04:27:02.017Z,15.60
2022-10-11T04:32:03.803Z,15.68
2022-10-11T04:37:05.597Z,19.10
2022-10-11T04:42:07.379Z,20.35
2022-10-11T04:47:09.166Z,20.33
2022-10-11T04:52:10.982Z,18.67
2022-10-11T04:57:12.770Z,14.55
2022-10-11T05:02:14.654Z,10.20
2022-10-11T05:07:16.738Z,12.23
2022-10-11T05:12:18.536Z,15.25
2022-10-11T05:17:20.327Z,10.95
2022-10-11T05:22:22.198Z,14.38
2022-10-11T05:27:23.987Z,10.73
2022-10-11T05:32:28.026Z,14.82
2022-10-11T05:37:30.048Z,13.43
2022-10-11T05:42:31.828Z,9.93
2022-10-11T05:47:33.737Z,7.07
2022-10-11T05:52:35.606Z,14.60
2022-10-11T05:57:37.424Z,10.98
2022-10-11T06:02:39.263Z,13.02
2022-10-11T06:07:41.157Z,19.63
2022-10-11T06:12:42.941Z,18.58
2022-10-11T06:17:44.770Z,20.65
2022-10-11T06:22:46.527Z,25.52
2022-10-11T06:27:48.315Z,14.95
2022-10-11T06:32:50.165Z,14.95
2022-10-11T06:37:51.951Z,18.98
2022-10-11T06:42:53.763Z,14.57
2022-10-11T06:47:55.555Z,13.52
2022-10-11T06:52:57.375Z,11.82
2022-10-11T06:57:59.189Z,13.65
2022-10-11T07:03:00.983Z,18.50
2022-10-11T07:08:02.773Z,18.55
2022-10-11T07:13:04.592Z,20.95
2022-10-11T07:18:06.470Z,19.50
2022-10-11T07:23:08.271Z,16.02
2022-10-11T07:28:10.156Z,19.58
2022-10-11T07:33:11.996Z,25.48
2022-10-11T07:38:13.806Z,18.83
2022-10-11T07:43:15.617Z,18.38
2022-10-11T07:48:17.412Z,22.92
2022-10-11T07:53:19.282Z,21.02
2022-10-11T07:58:21.073Z,23.02
2022-10-11T08:03:22.863Z,22.20
2022-10-11T08:08:24.652Z,22.83
2022-10-11T08:13:26.545Z,11.43
2022-10-11T08:18:28.365Z,12.23
2022-10-11T08:23:30.160Z,18.73
2022-10-11T08:28:32.504Z,15.07
2022-10-11T08:33:39.466Z,14.70
2022-10-11T08:38:44.120Z,6.40
2022-10-11T08:43:55.550Z,9.20
2022-10-11T10:16:38.905Z,10.43
2022-10-11T20:11:29.417Z,12.30
2022-10-11T20:16:31.287Z,10.60
2022-10-11T20:21:34.875Z,7.68
2022-10-11T20:26:36.696Z,8.73
2022-10-11T20:31:38.529Z,12.80
2022-10-11T20:36:40.336Z,10.05
2022-10-11T20:41:42.131Z,10.77
2022-10-11T20:46:43.924Z,9.98
2022-10-11T20:51:52.413Z,7.55
2022-10-11T20:56:54.187Z,10.23
2022-10-11T21:01:55.996Z,4.45
2022-10-11T21:06:57.773Z,7.63
2022-10-11T21:12:00.480Z,6.13
2022-10-11T21:17:02.255Z,4.97
2022-10-11T21:22:04.118Z,3.90
2022-10-11T21:27:05.916Z,4.72
2022-10-11T21:32:12.019Z,2.47
2022-10-11T21:37:16.174Z,4.88
2022-10-11T21:42:17.979Z,3.35
2022-10-11T21:47:19.768Z,4.22
2022-10-11T21:52:21.713Z,2.28
2022-10-11T21:57:26.684Z,4.70
2022-10-11T22:02:39.116Z,4.28
2022-10-11T22:08:05.799Z,7.28
2022-10-11T22:13:07.589Z,4.85
2022-10-11T22:18:33.850Z,5.10
2022-10-11T22:23:37.242Z,8.23
2022-10-11T22:28:39.194Z,7.00
2022-10-11T22:33:41.163Z,8.23
2022-10-11T22:38:43.395Z,4.88
2022-10-11T22:43:45.203Z,2.90
2022-10-11T22:48:46.980Z,16.17
2022-10-11T22:53:48.783Z,8.30
2022-10-11T22:58:50.571Z,7.82
2022-10-11T23:03:52.447Z,15.23
2022-10-11T23:08:54.292Z,19.05
2022-10-11T23:13:56.118Z,20.75
2022-10-11T23:18:57.912Z,12.80
2022-10-11T23:23:59.694Z,12.98
2022-10-11T23:29:01.533Z,15.80
2022-10-11T23:34:03.324Z,11.93
2022-10-11T23:39:05.130Z,9.15
2022-10-11T23:44:06.912Z,22.08
2022-10-11T23:49:08.704Z,10.35
2022-10-11T23:54:10.562Z,12.15
2022-10-11T23:59:12.355Z,11.32
